sensor_id;sensor_type;location;lat;lon;timestamp;pressure;altitude;pressure_sealevel;temperature;humidity
30714;BME280;17465;47.934;33.430;2022-11-02T00:00:34;125101.11;;;-140.43;57.39
30714;BME280;17465;47.934;33.430;2022-11-02T00:03:05;125101.11;;;-140.43;57.39
30714;BME280;17465;47.934;33.430;2022-11-02T00:05:39;125101.11;;;-140.43;58.23
30714;BME280;17465;47.934;33.430;2022-11-02T00:08:10;125101.11;;;-140.43;57.06
30714;BME280;17465;47.934;33.430;2022-11-02T00:10:40;125101.11;;;-140.43;56.13
30714;BME280;17465;47.934;33.430;2022-11-02T00:13:14;125101.11;;;-140.43;56.13
30714;BME280;17465;47.934;33.430;2022-11-02T00:15:43;125101.11;;;-140.43;53.49
30714;BME280;17465;47.934;33.430;2022-11-02T00:18:14;125101.11;;;-140.43;53.37
30714;BME280;17465;47.934;33.430;2022-11-02T00:20:45;125101.11;;;-140.43;53.84
30714;BME280;17465;47.934;33.430;2022-11-02T00:23:17;125101.11;;;-140.43;53.98
30714;BME280;17465;47.934;33.430;2022-11-02T00:25:49;125101.11;;;-140.43;53.98
30714;BME280;17465;47.934;33.430;2022-11-02T00:28:22;125101.11;;;-140.43;53.69
30714;BME280;17465;47.934;33.430;2022-11-02T00:30:52;125101.11;;;-140.43;53.69
30714;BME280;17465;47.934;33.430;2022-11-02T00:33:22;125101.11;;;-140.43;54.90
30714;BME280;17465;47.934;33.430;2022-11-02T00:35:54;125101.11;;;-140.43;54.90
30714;BME280;17465;47.934;33.430;2022-11-02T00:38:25;125101.11;;;-140.43;59.76
30714;BME280;17465;47.934;33.430;2022-11-02T00:40:57;125101.11;;;-140.43;61.03
30714;BME280;17465;47.934;33.430;2022-11-02T00:43:28;125101.11;;;-140.43;59.71
30714;BME280;17465;47.934;33.430;2022-11-02T00:46:00;125101.11;;;-140.43;58.88
30714;BME280;17465;47.934;33.430;2022-11-02T00:48:31;125101.11;;;-140.43;58.88
30714;BME280;17465;47.934;33.430;2022-11-02T00:51:02;125101.11;;;-140.43;58.11
30714;BME280;17465;47.934;33.430;2022-11-02T00:53:36;125101.11;;;-140.43;58.17
30714;BME280;17465;47.934;33.430;2022-11-02T00:56:07;125101.11;;;-140.43;57.75
30714;BME280;17465;47.934;33.430;2022-11-02T00:58:38;125101.11;;;-140.43;57.31
30714;BME280;17465;47.934;33.430;2022-11-02T01:01:09;125101.11;;;-140.43;58.18
30714;BME280;17465;47.934;33.430;2022-11-02T01:03:40;125101.11;;;-140.43;57.13
30714;BME280;17465;47.934;33.430;2022-11-02T01:06:13;125101.11;;;-140.43;57.13
30714;BME280;17465;47.934;33.430;2022-11-02T01:08:44;125101.11;;;-140.43;56.08
30714;BME280;17465;47.934;33.430;2022-11-02T01:11:17;125101.11;;;-140.43;56.50
30714;BME280;17465;47.934;33.430;2022-11-02T01:13:49;125101.11;;;-140.43;56.51
30714;BME280;17465;47.934;33.430;2022-11-02T01:16:21;125101.11;;;-140.43;56.51
30714;BME280;17465;47.934;33.430;2022-11-02T01:18:54;125101.11;;;-140.43;55.29
30714;BME280;17465;47.934;33.430;2022-11-02T01:21:25;125101.11;;;-140.43;56.03
30714;BME280;17465;47.934;33.430;2022-11-02T01:24:02;125101.11;;;-140.43;56.27
30714;BME280;17465;47.934;33.430;2022-11-02T01:26:29;125101.11;;;-140.43;55.88
30714;BME280;17465;47.934;33.430;2022-11-02T01:29:00;125101.11;;;-140.43;56.25
30714;BME280;17465;47.934;33.430;2022-11-02T01:31:31;125101.11;;;-140.43;59.84
30714;BME280;17465;47.934;33.430;2022-11-02T01:34:02;125101.11;;;-140.43;62.21
30714;BME280;17465;47.934;33.430;2022-11-02T01:36:32;125101.11;;;-140.43;63.12
30714;BME280;17465;47.934;33.430;2022-11-02T01:39:04;125101.11;;;-140.43;64.67
30714;BME280;17465;47.934;33.430;2022-11-02T01:41:37;125101.11;;;-140.43;65.63
30714;BME280;17465;47.934;33.430;2022-11-02T01:44:30;125101.11;;;-140.43;67.00
30714;BME280;17465;47.934;33.430;2022-11-02T01:47:10;125101.11;;;-140.43;66.40
30714;BME280;17465;47.934;33.430;2022-11-02T01:49:37;125101.11;;;-140.43;66.32
30714;BME280;17465;47.934;33.430;2022-11-02T01:52:17;125101.11;;;-140.43;66.32
30714;BME280;17465;47.934;33.430;2022-11-02T01:55:09;125101.11;;;-140.43;65.94
30714;BME280;17465;47.934;33.430;2022-11-02T01:57:40;125101.11;;;-140.43;68.67
30714;BME280;17465;47.934;33.430;2022-11-02T02:00:13;125101.11;;;-140.43;68.67
30714;BME280;17465;47.934;33.430;2022-11-02T02:02:59;125101.11;;;-140.43;68.67
30714;BME280;17465;47.934;33.430;2022-11-02T02:05:29;125101.11;;;-140.43;68.86
30714;BME280;17465;47.934;33.430;2022-11-02T02:08:01;125101.11;;;-140.43;67.48
30714;BME280;17465;47.934;33.430;2022-11-02T02:10:39;125101.11;;;-140.43;67.87
30714;BME280;17465;47.934;33.430;2022-11-02T02:13:07;125101.11;;;-140.43;68.30
30714;BME280;17465;47.934;33.430;2022-11-02T02:16:06;125101.11;;;-140.43;65.72
30714;BME280;17465;47.934;33.430;2022-11-02T02:21:11;125101.11;;;-140.43;67.29
30714;BME280;17465;47.934;33.430;2022-11-02T02:23:58;125101.11;;;-140.43;67.79
30714;BME280;17465;47.934;33.430;2022-11-02T02:26:37;125101.11;;;-140.43;69.88
30714;BME280;17465;47.934;33.430;2022-11-02T02:37:53;125101.11;;;-140.43;70.87
30714;BME280;17465;47.934;33.430;2022-11-02T02:43:37;125101.11;;;-140.43;70.10
30714;BME280;17465;47.934;33.430;2022-11-02T02:46:12;125101.11;;;-140.43;70.48
30714;BME280;17465;47.934;33.430;2022-11-02T02:48:44;125101.11;;;-140.43;68.40
30714;BME280;17465;47.934;33.430;2022-11-02T02:51:25;125101.11;;;-140.43;69.20
30714;BME280;17465;47.934;33.430;2022-11-02T02:54:06;125101.11;;;-140.43;70.55
30714;BME280;17465;47.934;33.430;2022-11-02T02:56:41;125101.11;;;-140.43;68.52
30714;BME280;17465;47.934;33.430;2022-11-02T02:59:13;125101.11;;;-140.43;68.14
30714;BME280;17465;47.934;33.430;2022-11-02T03:01:44;125101.11;;;-140.43;65.69
30714;BME280;17465;47.934;33.430;2022-11-02T03:04:15;125101.11;;;-140.43;66.50
30714;BME280;17465;47.934;33.430;2022-11-02T03:09:44;125101.11;;;-140.43;65.86
30714;BME280;17465;47.934;33.430;2022-11-02T03:15:23;125101.11;;;-140.43;63.31
30714;BME280;17465;47.934;33.430;2022-11-02T03:18:03;125101.11;;;-140.43;64.46
30714;BME280;17465;47.934;33.430;2022-11-02T03:26:33;125101.11;;;-140.43;62.52
30714;BME280;17465;47.934;33.430;2022-11-02T03:29:27;125101.11;;;-140.43;63.88
30714;BME280;17465;47.934;33.430;2022-11-02T03:35:01;125101.11;;;-140.43;62.89
30714;BME280;17465;47.934;33.430;2022-11-02T03:42:48;125101.11;;;-140.43;62.54
30714;BME280;17465;47.934;33.430;2022-11-02T03:45:22;125101.11;;;-140.43;62.01
30714;BME280;17465;47.934;33.430;2022-11-02T03:47:59;125101.11;;;-140.43;63.12
30714;BME280;17465;47.934;33.430;2022-11-02T03:50:33;125101.11;;;-140.43;63.43
30714;BME280;17465;47.934;33.430;2022-11-02T03:56:12;125101.11;;;-140.43;64.27
30714;BME280;17465;47.934;33.430;2022-11-02T03:58:37;125101.11;;;-140.43;63.05
30714;BME280;17465;47.934;33.430;2022-11-02T04:01:10;125101.11;;;-140.43;63.70
30714;BME280;17465;47.934;33.430;2022-11-02T04:03:44;125101.11;;;-140.43;64.00
30714;BME280;17465;47.934;33.430;2022-11-02T04:06:16;125101.11;;;-140.43;64.00
30714;BME280;17465;47.934;33.430;2022-11-02T04:08:47;125101.11;;;-140.43;64.32
30714;BME280;17465;47.934;33.430;2022-11-02T04:11:18;125101.11;;;-140.43;64.13
30714;BME280;17465;47.934;33.430;2022-11-02T04:13:49;125101.11;;;-140.43;64.13
30714;BME280;17465;47.934;33.430;2022-11-02T04:16:20;125101.11;;;-140.43;64.17
30714;BME280;17465;47.934;33.430;2022-11-02T04:18:53;125101.11;;;-140.43;65.00
30714;BME280;17465;47.934;33.430;2022-11-02T04:21:23;125101.11;;;-140.43;65.50
30714;BME280;17465;47.934;33.430;2022-11-02T04:23:53;125101.11;;;-140.43;65.50
30714;BME280;17465;47.934;33.430;2022-11-02T04:26:24;125101.11;;;-140.43;65.65
30714;BME280;17465;47.934;33.430;2022-11-02T04:28:55;125101.11;;;-140.43;66.49
30714;BME280;17465;47.934;33.430;2022-11-02T04:31:26;125101.11;;;-140.43;67.00
30714;BME280;17465;47.934;33.430;2022-11-02T04:33:57;125101.11;;;-140.43;66.33
30714;BME280;17465;47.934;33.430;2022-11-02T04:36:31;125101.11;;;-140.43;66.28
30714;BME280;17465;47.934;33.430;2022-11-02T04:39:02;125101.11;;;-140.43;66.92
30714;BME280;17465;47.934;33.430;2022-11-02T04:41:33;125101.11;;;-140.43;66.92
30714;BME280;17465;47.934;33.430;2022-11-02T04:44:04;125101.11;;;-140.43;66.43
30714;BME280;17465;47.934;33.430;2022-11-02T04:46:37;125101.11;;;-140.43;67.45
30714;BME280;17465;47.934;33.430;2022-11-02T04:49:08;125101.11;;;-140.43;67.07
30714;BME280;17465;47.934;33.430;2022-11-02T04:51:40;125101.11;;;-140.43;67.17
30714;BME280;17465;47.934;33.430;2022-11-02T04:54:12;125101.11;;;-140.43;67.17
30714;BME280;17465;47.934;33.430;2022-11-02T04:56:43;125101.11;;;-140.43;67.56
30714;BME280;17465;47.934;33.430;2022-11-02T04:59:16;125101.11;;;-140.43;67.54
30714;BME280;17465;47.934;33.430;2022-11-02T05:01:49;125101.11;;;-140.43;67.54
30714;BME280;17465;47.934;33.430;2022-11-02T05:04:19;125101.11;;;-140.43;69.15
30714;BME280;17465;47.934;33.430;2022-11-02T05:06:50;125101.11;;;-140.43;69.15
30714;BME280;17465;47.934;33.430;2022-11-02T05:09:20;125101.11;;;-140.43;70.24
30714;BME280;17465;47.934;33.430;2022-11-02T05:11:53;125101.11;;;-140.43;70.19
30714;BME280;17465;47.934;33.430;2022-11-02T05:14:23;125101.11;;;-140.43;70.58
30714;BME280;17465;47.934;33.430;2022-11-02T05:16:54;125101.11;;;-140.43;71.39
30714;BME280;17465;47.934;33.430;2022-11-02T05:19:27;125101.11;;;-140.43;71.48
30714;BME280;17465;47.934;33.430;2022-11-02T05:21:58;125101.11;;;-140.43;71.58
30714;BME280;17465;47.934;33.430;2022-11-02T05:24:29;125101.11;;;-140.43;71.43
30714;BME280;17465;47.934;33.430;2022-11-02T05:27:02;125101.11;;;-140.43;71.89
30714;BME280;17465;47.934;33.430;2022-11-02T05:29:35;125101.11;;;-140.43;72.43
30714;BME280;17465;47.934;33.430;2022-11-02T05:32:06;125101.11;;;-140.43;72.05
30714;BME280;17465;47.934;33.430;2022-11-02T05:34:37;125101.11;;;-140.43;72.20
30714;BME280;17465;47.934;33.430;2022-11-02T05:37:08;125101.11;;;-140.43;72.20
30714;BME280;17465;47.934;33.430;2022-11-02T05:39:39;125101.11;;;-140.43;72.45
30714;BME280;17465;47.934;33.430;2022-11-02T05:42:11;125101.11;;;-140.43;72.66
30714;BME280;17465;47.934;33.430;2022-11-02T05:44:43;125101.11;;;-140.43;72.56
30714;BME280;17465;47.934;33.430;2022-11-02T05:47:14;125101.11;;;-140.43;72.56
30714;BME280;17465;47.934;33.430;2022-11-02T05:49:45;125101.11;;;-140.43;73.57
30714;BME280;17465;47.934;33.430;2022-11-02T05:53:00;125101.11;;;-140.43;73.57
30714;BME280;17465;47.934;33.430;2022-11-02T05:55:12;125101.11;;;-140.43;74.58
30714;BME280;17465;47.934;33.430;2022-11-02T05:57:45;125101.11;;;-140.43;74.58
30714;BME280;17465;47.934;33.430;2022-11-02T06:00:15;125101.11;;;-140.43;74.86
30714;BME280;17465;47.934;33.430;2022-11-02T06:02:46;125101.11;;;-140.43;75.03
30714;BME280;17465;47.934;33.430;2022-11-02T06:05:17;125101.11;;;-140.43;75.10
30714;BME280;17465;47.934;33.430;2022-11-02T06:07:48;125101.11;;;-140.43;74.52
30714;BME280;17465;47.934;33.430;2022-11-02T06:10:18;125101.11;;;-140.43;74.73
30714;BME280;17465;47.934;33.430;2022-11-02T06:12:57;125101.11;;;-140.43;74.25
30714;BME280;17465;47.934;33.430;2022-11-02T06:15:29;125101.11;;;-140.43;74.06
30714;BME280;17465;47.934;33.430;2022-11-02T06:18:00;125101.11;;;-140.43;74.27
30714;BME280;17465;47.934;33.430;2022-11-02T06:20:31;125101.11;;;-140.43;73.59
30714;BME280;17465;47.934;33.430;2022-11-02T06:25:55;125101.11;;;-140.43;73.57
30714;BME280;17465;47.934;33.430;2022-11-02T06:28:26;125101.11;;;-140.43;73.57
30714;BME280;17465;47.934;33.430;2022-11-02T06:31:06;125101.11;;;-140.43;73.12
30714;BME280;17465;47.934;33.430;2022-11-02T06:33:32;125101.11;;;-140.43;73.78
30714;BME280;17465;47.934;33.430;2022-11-02T06:36:03;125101.11;;;-140.43;73.36
30714;BME280;17465;47.934;33.430;2022-11-02T06:38:34;125101.11;;;-140.43;74.09
30714;BME280;17465;47.934;33.430;2022-11-02T06:41:04;125101.11;;;-140.43;73.81
30714;BME280;17465;47.934;33.430;2022-11-02T06:43:35;125101.11;;;-140.43;73.62
30714;BME280;17465;47.934;33.430;2022-11-02T06:46:09;125101.11;;;-140.43;73.62
30714;BME280;17465;47.934;33.430;2022-11-02T06:48:39;125101.11;;;-140.43;74.47
30714;BME280;17465;47.934;33.430;2022-11-02T06:51:10;125101.11;;;-140.43;74.65
30714;BME280;17465;47.934;33.430;2022-11-02T06:53:40;125101.11;;;-140.43;75.24
30714;BME280;17465;47.934;33.430;2022-11-02T06:56:11;125101.11;;;-140.43;75.24
30714;BME280;17465;47.934;33.430;2022-11-02T06:58:42;125101.11;;;-140.43;74.43
30714;BME280;17465;47.934;33.430;2022-11-02T07:01:12;125101.11;;;-140.43;74.19
30714;BME280;17465;47.934;33.430;2022-11-02T07:03:47;125101.11;;;-140.43;73.64
30714;BME280;17465;47.934;33.430;2022-11-02T07:06:17;125101.11;;;-140.43;73.64
30714;BME280;17465;47.934;33.430;2022-11-02T07:08:57;125101.11;;;-140.43;73.20
30714;BME280;17465;47.934;33.430;2022-11-02T07:34:55;125101.11;;;-140.43;66.77
30714;BME280;17465;47.934;33.430;2022-11-02T07:37:28;125101.11;;;-140.43;67.22
30714;BME280;17465;47.934;33.430;2022-11-02T07:40:17;125101.11;;;-140.43;67.22
30714;BME280;17465;47.934;33.430;2022-11-02T07:42:49;125101.11;;;-140.43;63.17
30714;BME280;17465;47.934;33.430;2022-11-02T07:45:22;125101.11;;;-140.43;61.79
30714;BME280;17465;47.934;33.430;2022-11-02T07:47:59;125101.11;;;-140.43;63.01
30714;BME280;17465;47.934;33.430;2022-11-02T07:50:28;125101.11;;;-140.43;63.01
30714;BME280;17465;47.934;33.430;2022-11-02T07:56:10;125101.11;;;-140.43;58.77
30714;BME280;17465;47.934;33.430;2022-11-02T07:58:45;125101.11;;;-140.43;58.77
30714;BME280;17465;47.934;33.430;2022-11-02T08:01:15;125101.11;;;-140.43;60.29
30714;BME280;17465;47.934;33.430;2022-11-02T08:03:47;125101.11;;;-140.43;57.08
30714;BME280;17465;47.934;33.430;2022-11-02T08:06:23;125101.11;;;-140.43;57.08
30714;BME280;17465;47.934;33.430;2022-11-02T08:08:51;125101.11;;;-140.43;58.37
30714;BME280;17465;47.934;33.430;2022-11-02T08:11:23;125101.11;;;-140.43;55.10
30714;BME280;17465;47.934;33.430;2022-11-02T08:13:54;125101.11;;;-140.43;54.00
30714;BME280;17465;47.934;33.430;2022-11-02T08:16:24;125101.11;;;-140.43;55.40
30714;BME280;17465;47.934;33.430;2022-11-02T08:19:06;125101.11;;;-140.43;50.88
30714;BME280;17465;47.934;33.430;2022-11-02T08:21:36;125101.11;;;-140.43;53.97
30714;BME280;17465;47.934;33.430;2022-11-02T08:24:53;125101.11;;;-140.43;53.97
30714;BME280;17465;47.934;33.430;2022-11-02T08:27:30;125101.11;;;-140.43;54.76
30714;BME280;17465;47.934;33.430;2022-11-02T08:30:03;125101.11;;;-140.43;57.13
30714;BME280;17465;47.934;33.430;2022-11-02T08:32:42;125101.11;;;-140.43;58.15
30714;BME280;17465;47.934;33.430;2022-11-02T08:35:17;125101.11;;;-140.43;58.15
30714;BME280;17465;47.934;33.430;2022-11-02T08:37:56;125101.11;;;-140.43;63.89
30714;BME280;17465;47.934;33.430;2022-11-02T08:40:51;125101.11;;;-140.43;64.02
30714;BME280;17465;47.934;33.430;2022-11-02T09:03:30;125101.11;;;-140.43;66.38
30714;BME280;17465;47.934;33.430;2022-11-02T09:06:34;125101.11;;;-140.43;66.00
30714;BME280;17465;47.934;33.430;2022-11-02T09:09:16;125101.11;;;-140.43;66.00
30714;BME280;17465;47.934;33.430;2022-11-02T09:11:52;125101.11;;;-140.43;67.12
30714;BME280;17465;47.934;33.430;2022-11-02T09:14:31;125101.11;;;-140.43;67.12
30714;BME280;17465;47.934;33.430;2022-11-02T09:17:13;125101.11;;;-140.43;67.87
30714;BME280;17465;47.934;33.430;2022-11-02T09:19:49;125101.11;;;-140.43;66.79
30714;BME280;17465;47.934;33.430;2022-11-02T09:22:39;125101.11;;;-140.43;66.79
30714;BME280;17465;47.934;33.430;2022-11-02T09:25:17;125101.11;;;-140.43;67.15
30714;BME280;17465;47.934;33.430;2022-11-02T09:28:29;125101.11;;;-140.43;67.17
30714;BME280;17465;47.934;33.430;2022-11-02T09:31:41;125101.11;;;-140.43;67.72
30714;BME280;17465;47.934;33.430;2022-11-02T09:34:22;125101.11;;;-140.43;67.72
30714;BME280;17465;47.934;33.430;2022-11-02T09:37:00;125101.11;;;-140.43;69.15
30714;BME280;17465;47.934;33.430;2022-11-02T09:39:40;125101.11;;;-140.43;69.15
30714;BME280;17465;47.934;33.430;2022-11-02T09:45:24;125101.11;;;-140.43;70.12
30714;BME280;17465;47.934;33.430;2022-11-02T09:48:42;125101.11;;;-140.43;70.97
30714;BME280;17465;47.934;33.430;2022-11-02T09:54:34;125101.11;;;-140.43;71.63
30714;BME280;17465;47.934;33.430;2022-11-02T09:57:14;125101.11;;;-140.43;72.12
30714;BME280;17465;47.934;33.430;2022-11-02T09:59:54;125101.11;;;-140.43;72.12
30714;BME280;17465;47.934;33.430;2022-11-02T11:02:38;125101.11;;;-140.43;77.82
30714;BME280;17465;47.934;33.430;2022-11-02T11:05:18;125101.11;;;-140.43;76.91
30714;BME280;17465;47.934;33.430;2022-11-02T11:14:06;125101.11;;;-140.43;77.56
30714;BME280;17465;47.934;33.430;2022-11-02T11:16:50;125101.11;;;-140.43;77.40
30714;BME280;17465;47.934;33.430;2022-11-02T11:19:40;125101.11;;;-140.43;76.94
30714;BME280;17465;47.934;33.430;2022-11-02T11:22:37;125101.11;;;-140.43;76.94
30714;BME280;17465;47.934;33.430;2022-11-02T11:25:21;125101.11;;;-140.43;76.54
30714;BME280;17465;47.934;33.430;2022-11-02T11:27:56;125101.11;;;-140.43;77.20
30714;BME280;17465;47.934;33.430;2022-11-02T11:30:40;125101.11;;;-140.43;77.20
30714;BME280;17465;47.934;33.430;2022-11-02T11:46:23;125101.11;;;-140.43;77.99
30714;BME280;17465;47.934;33.430;2022-11-02T11:48:56;125101.11;;;-140.43;78.96
30714;BME280;17465;47.934;33.430;2022-11-02T11:55:20;125101.11;;;-140.43;79.24
30714;BME280;17465;47.934;33.430;2022-11-02T12:21:28;125101.11;;;-140.43;78.44
30714;BME280;17465;47.934;33.430;2022-11-02T12:24:23;125101.11;;;-140.43;78.29
30714;BME280;17465;47.934;33.430;2022-11-02T12:29:51;125101.11;;;-140.43;80.17
30714;BME280;17465;47.934;33.430;2022-11-02T12:32:36;125101.11;;;-140.43;80.17
30714;BME280;17465;47.934;33.430;2022-11-02T12:35:15;125101.11;;;-140.43;80.73
30714;BME280;17465;47.934;33.430;2022-11-02T12:37:59;125101.11;;;-140.43;80.54
30714;BME280;17465;47.934;33.430;2022-11-02T12:43:46;125101.11;;;-140.43;81.01
30714;BME280;17465;47.934;33.430;2022-11-02T12:49:46;125101.11;;;-140.43;82.08
30714;BME280;17465;47.934;33.430;2022-11-02T12:52:38;125101.11;;;-140.43;82.33
30714;BME280;17465;47.934;33.430;2022-11-02T12:55:20;125101.11;;;-140.43;82.33
30714;BME280;17465;47.934;33.430;2022-11-02T12:57:43;125101.11;;;-140.43;82.96
30714;BME280;17465;47.934;33.430;2022-11-02T13:00:20;125101.11;;;-140.43;83.90
30714;BME280;17465;47.934;33.430;2022-11-02T13:19:26;125101.11;;;-140.43;85.14
30714;BME280;17465;47.934;33.430;2022-11-02T13:21:59;125101.11;;;-140.43;84.65
30714;BME280;17465;47.934;33.430;2022-11-02T13:24:45;125101.11;;;-140.43;83.78
30714;BME280;17465;47.934;33.430;2022-11-02T13:36:07;125101.11;;;-140.43;82.30
30714;BME280;17465;47.934;33.430;2022-11-02T13:38:46;125101.11;;;-140.43;82.30
30714;BME280;17465;47.934;33.430;2022-11-02T13:54:20;125101.11;;;-140.43;84.11
30714;BME280;17465;47.934;33.430;2022-11-02T13:56:58;125101.11;;;-140.43;84.72
30714;BME280;17465;47.934;33.430;2022-11-02T13:59:34;125101.11;;;-140.43;83.95
30714;BME280;17465;47.934;33.430;2022-11-02T14:02:15;125101.11;;;-140.43;84.15
30714;BME280;17465;47.934;33.430;2022-11-02T14:05:08;125101.11;;;-140.43;84.95
30714;BME280;17465;47.934;33.430;2022-11-02T14:07:42;125101.11;;;-140.43;85.00
30714;BME280;17465;47.934;33.430;2022-11-02T14:10:17;125101.11;;;-140.43;85.00
30714;BME280;17465;47.934;33.430;2022-11-02T14:12:53;125101.11;;;-140.43;85.50
30714;BME280;17465;47.934;33.430;2022-11-02T14:15:50;125101.11;;;-140.43;86.00
30714;BME280;17465;47.934;33.430;2022-11-02T14:30:01;125101.11;;;-140.43;88.07
30714;BME280;17465;47.934;33.430;2022-11-02T14:33:07;125101.11;;;-140.43;88.29
30714;BME280;17465;47.934;33.430;2022-11-02T14:59:03;125101.11;;;-140.43;88.94
30714;BME280;17465;47.934;33.430;2022-11-02T15:02:03;125101.11;;;-140.43;89.20
30714;BME280;17465;47.934;33.430;2022-11-02T15:04:59;125101.11;;;-140.43;89.56
30714;BME280;17465;47.934;33.430;2022-11-02T15:08:02;125101.11;;;-140.43;90.00
30714;BME280;17465;47.934;33.430;2022-11-02T15:10:34;125101.11;;;-140.43;89.92
30714;BME280;17465;47.934;33.430;2022-11-02T15:13:22;125101.11;;;-140.43;90.34
30714;BME280;17465;47.934;33.430;2022-11-02T15:16:13;125101.11;;;-140.43;90.34
30714;BME280;17465;47.934;33.430;2022-11-02T15:18:35;125101.11;;;-140.43;90.13
30714;BME280;17465;47.934;33.430;2022-11-02T15:21:49;125101.11;;;-140.43;90.13
30714;BME280;17465;47.934;33.430;2022-11-02T15:24:24;125101.11;;;-140.43;89.72
30714;BME280;17465;47.934;33.430;2022-11-02T15:27:09;125101.11;;;-140.43;89.72
30714;BME280;17465;47.934;33.430;2022-11-02T15:29:47;125101.11;;;-140.43;89.67
30714;BME280;17465;47.934;33.430;2022-11-02T15:32:31;125101.11;;;-140.43;90.41
30714;BME280;17465;47.934;33.430;2022-11-02T15:35:36;125101.11;;;-140.43;90.41
30714;BME280;17465;47.934;33.430;2022-11-02T15:38:23;125101.11;;;-140.43;89.38
30714;BME280;17465;47.934;33.430;2022-11-02T15:41:04;125101.11;;;-140.43;89.38
30714;BME280;17465;47.934;33.430;2022-11-02T15:47:09;125101.11;;;-140.43;89.00
30714;BME280;17465;47.934;33.430;2022-11-02T15:55:02;125101.11;;;-140.43;90.00
30714;BME280;17465;47.934;33.430;2022-11-02T15:57:39;125101.11;;;-140.43;91.43
30714;BME280;17465;47.934;33.430;2022-11-02T16:00:31;125101.11;;;-140.43;91.36
30714;BME280;17465;47.934;33.430;2022-11-02T16:06:02;125101.11;;;-140.43;92.26
30714;BME280;17465;47.934;33.430;2022-11-02T16:11:38;125101.11;;;-140.43;92.48
30714;BME280;17465;47.934;33.430;2022-11-02T16:14:36;125101.11;;;-140.43;92.65
30714;BME280;17465;47.934;33.430;2022-11-02T16:17:03;125101.11;;;-140.43;91.55
30714;BME280;17465;47.934;33.430;2022-11-02T16:19:36;125101.11;;;-140.43;91.27
30714;BME280;17465;47.934;33.430;2022-11-02T16:22:11;125101.11;;;-140.43;91.23
30714;BME280;17465;47.934;33.430;2022-11-02T16:25:16;125101.11;;;-140.43;91.21
30714;BME280;17465;47.934;33.430;2022-11-02T16:27:58;125101.11;;;-140.43;91.30
30714;BME280;17465;47.934;33.430;2022-11-02T16:31:24;125101.11;;;-140.43;91.36
30714;BME280;17465;47.934;33.430;2022-11-02T16:34:36;125101.11;;;-140.43;91.75
30714;BME280;17465;47.934;33.430;2022-11-02T16:37:31;125101.11;;;-140.43;90.74
30714;BME280;17465;47.934;33.430;2022-11-02T16:39:59;125101.11;;;-140.43;90.91
30714;BME280;17465;47.934;33.430;2022-11-02T16:42:36;125101.11;;;-140.43;90.91
30714;BME280;17465;47.934;33.430;2022-11-02T17:00:17;125101.11;;;-140.43;90.94
30714;BME280;17465;47.934;33.430;2022-11-02T17:02:49;125101.11;;;-140.43;91.42
30714;BME280;17465;47.934;33.430;2022-11-02T17:05:25;125101.11;;;-140.43;91.44
30714;BME280;17465;47.934;33.430;2022-11-02T17:08:17;125101.11;;;-140.43;91.01
30714;BME280;17465;47.934;33.430;2022-11-02T17:10:44;125101.11;;;-140.43;91.67
30714;BME280;17465;47.934;33.430;2022-11-02T17:13:13;125101.11;;;-140.43;91.48
30714;BME280;17465;47.934;33.430;2022-11-02T17:16:07;125101.11;;;-140.43;91.90
30714;BME280;17465;47.934;33.430;2022-11-02T17:18:38;125101.11;;;-140.43;92.13
30714;BME280;17465;47.934;33.430;2022-11-02T17:21:20;125101.11;;;-140.43;91.68
30714;BME280;17465;47.934;33.430;2022-11-02T17:23:54;125101.11;;;-140.43;91.68
30714;BME280;17465;47.934;33.430;2022-11-02T17:26:32;125101.11;;;-140.43;92.58
30714;BME280;17465;47.934;33.430;2022-11-02T17:31:59;125101.11;;;-140.43;91.73
30714;BME280;17465;47.934;33.430;2022-11-02T17:34:31;125101.11;;;-140.43;91.12
30714;BME280;17465;47.934;33.430;2022-11-02T17:37:18;125101.11;;;-140.43;90.97
30714;BME280;17465;47.934;33.430;2022-11-02T17:39:41;125101.11;;;-140.43;90.70
30714;BME280;17465;47.934;33.430;2022-11-02T17:42:12;125101.11;;;-140.43;91.19
30714;BME280;17465;47.934;33.430;2022-11-02T17:44:43;125101.11;;;-140.43;91.19
30714;BME280;17465;47.934;33.430;2022-11-02T17:47:20;125101.11;;;-140.43;92.63
30714;BME280;17465;47.934;33.430;2022-11-02T17:49:53;125101.11;;;-140.43;93.33
30714;BME280;17465;47.934;33.430;2022-11-02T17:52:33;125101.11;;;-140.43;92.65
30714;BME280;17465;47.934;33.430;2022-11-02T17:55:05;125101.11;;;-140.43;92.23
30714;BME280;17465;47.934;33.430;2022-11-02T17:57:37;125101.11;;;-140.43;92.00
30714;BME280;17465;47.934;33.430;2022-11-02T18:00:20;125101.11;;;-140.43;91.44
30714;BME280;17465;47.934;33.430;2022-11-02T18:03:00;125101.11;;;-140.43;91.57
30714;BME280;17465;47.934;33.430;2022-11-02T18:05:35;125101.11;;;-140.43;91.94
30714;BME280;17465;47.934;33.430;2022-11-02T18:08:17;125101.11;;;-140.43;91.69
30714;BME280;17465;47.934;33.430;2022-11-02T18:11:09;125101.11;;;-140.43;93.23
30714;BME280;17465;47.934;33.430;2022-11-02T18:13:46;125101.11;;;-140.43;92.83
30714;BME280;17465;47.934;33.430;2022-11-02T18:16:17;125101.11;;;-140.43;92.15
30714;BME280;17465;47.934;33.430;2022-11-02T18:18:51;125101.11;;;-140.43;92.18
30714;BME280;17465;47.934;33.430;2022-11-02T18:21:23;125101.11;;;-140.43;92.80
30714;BME280;17465;47.934;33.430;2022-11-02T18:23:55;125101.11;;;-140.43;93.86